createdAt,value
2019-02-09T00:01:29.917Z,184.43
2019-02-09T00:03:59.430Z,181.47
2019-02-09T00:06:29.247Z,168.67
2019-02-09T00:08:58.764Z,177.90
2019-02-09T00:11:28.863Z,185.73
2019-02-09T00:13:57.941Z,176.43
2019-02-09T00:16:27.377Z,180.13
2019-02-09T00:18:56.893Z,186.37
2019-02-09T00:21:27.001Z,207.37
2019-02-09T00:23:56.511Z,201.10
2019-02-09T00:26:26.005Z,188.33
2019-02-09T00:28:55.455Z,199.40
2019-02-09T00:31:25.128Z,186.73
2019-02-09T00:33:54.581Z,196.40
2019-02-09T00:36:23.732Z,201.23
2019-02-09T00:38:53.583Z,195.30
2019-02-09T00:41:23.129Z,183.60
2019-02-09T00:43:52.571Z,195.33
2019-02-09T00:46:21.982Z,203.90
2019-02-09T00:48:52.118Z,162.67
2019-02-09T00:51:21.608Z,194.67
2019-02-09T00:53:51.031Z,170.17
2019-02-09T00:56:20.526Z,172.53
2019-02-09T00:58:49.952Z,159.77
2019-02-09T01:01:19.551Z,157.03
2019-02-09T01:03:49.369Z,174.47
2019-02-09T01:06:19.167Z,170.63
2019-02-09T01:08:48.685Z,175.73
2019-02-09T01:11:18.397Z,159.30
2019-02-09T01:13:48.428Z,181.67
2019-02-09T01:16:18.246Z,176.77
2019-02-09T01:18:47.339Z,170.90
2019-02-09T01:21:16.857Z,165.90
2019-02-09T01:23:46.658Z,184.57
2019-02-09T01:26:16.103Z,159.53
2019-02-09T01:28:45.567Z,166.67
2019-02-09T01:31:15.357Z,178.77
2019-02-09T01:33:44.794Z,167.47
2019-02-09T01:36:14.218Z,174.27
2019-02-09T01:38:44.069Z,173.90
2019-02-09T01:41:13.907Z,172.50
2019-02-09T01:43:43.059Z,174.10
2019-02-09T01:46:12.753Z,179.50
2019-02-09T01:48:42.556Z,166.73
2019-02-09T01:51:12.027Z,179.63
2019-02-09T01:53:41.367Z,174.90
2019-02-09T01:56:10.736Z,157.77
2019-02-09T01:58:40.235Z,170.20
2019-02-09T02:01:09.363Z,163.10
2019-02-09T02:03:39.012Z,167.63
2019-02-09T02:06:08.391Z,161.33
2019-02-09T02:08:37.526Z,164.37
2019-02-09T02:11:07.682Z,178.20
2019-02-09T02:13:37.140Z,177.10
2019-02-09T02:16:06.541Z,162.00
2019-02-09T02:18:35.973Z,162.60
2019-02-09T02:21:05.658Z,159.93
2019-02-09T02:23:35.127Z,165.60
2019-02-09T02:26:04.236Z,163.47
2019-02-09T02:28:33.392Z,163.63
2019-02-09T02:31:03.474Z,152.93
2019-02-09T02:33:32.916Z,149.83
2019-02-09T02:36:02.436Z,162.33
2019-02-09T02:38:32.217Z,162.83
2019-02-09T02:41:01.292Z,154.30
2019-02-09T02:43:30.606Z,156.27
2019-02-09T02:45:59.681Z,139.23
2019-02-09T02:48:29.968Z,139.47
2019-02-09T02:50:59.475Z,136.33
2019-02-09T02:53:29.297Z,147.90
2019-02-09T02:55:58.710Z,139.20
2019-02-09T02:58:28.192Z,145.20
2019-02-09T03:00:57.957Z,156.77
2019-02-09T03:03:27.056Z,170.30
2019-02-09T03:05:56.524Z,159.13
2019-02-09T03:08:26.427Z,167.50
2019-02-09T03:10:55.850Z,165.47
2019-02-09T03:13:25.878Z,157.17
2019-02-09T03:15:55.692Z,163.90
2019-02-09T03:18:24.760Z,167.50
2019-02-09T03:20:54.232Z,158.33
2019-02-09T03:23:23.678Z,160.83
2019-02-09T03:25:53.141Z,154.80
2019-02-09T03:28:22.636Z,156.53
2019-02-09T03:30:52.732Z,157.63
2019-02-09T03:33:22.237Z,155.80
2019-02-09T03:35:51.381Z,147.77
2019-02-09T03:38:21.047Z,138.20
2019-02-09T03:40:50.166Z,149.40
2019-02-09T03:43:19.253Z,134.97
2019-02-09T03:45:49.268Z,133.33
2019-02-09T03:48:19.441Z,141.83
2019-02-09T03:50:49.925Z,128.03
2019-02-09T03:53:19.751Z,135.03
2019-02-09T03:55:49.168Z,129.77
2019-02-09T03:58:18.294Z,127.10
2019-02-09T04:00:55.273Z,128.27
2019-02-09T04:03:19.230Z,122.43
2019-02-09T04:05:49.005Z,113.97
2019-02-09T04:08:18.462Z,115.77
2019-02-09T04:10:47.859Z,122.70
2019-02-09T04:13:17.336Z,116.57
2019-02-09T04:15:46.443Z,115.93
2019-02-09T04:18:16.147Z,117.90
2019-02-09T04:20:45.841Z,123.30
2019-02-09T04:23:14.944Z,117.00
2019-02-09T04:25:44.725Z,116.93
2019-02-09T04:28:14.103Z,107.60
2019-02-09T04:30:43.833Z,104.63
2019-02-09T04:33:14.197Z,115.57
2019-02-09T04:35:43.650Z,103.50
2019-02-09T04:38:13.378Z,107.17
2019-02-09T04:40:42.738Z,98.93
2019-02-09T04:43:12.165Z,100.17
2019-02-09T04:45:41.667Z,112.13
2019-02-09T04:48:11.432Z,104.40
2019-02-09T04:50:40.530Z,103.67
2019-02-09T04:53:10.641Z,104.90
2019-02-09T04:55:40.418Z,109.73
2019-02-09T04:58:09.900Z,112.40
2019-02-09T05:00:39.280Z,105.57
2019-02-09T05:03:08.423Z,115.57
2019-02-09T05:05:37.579Z,111.40
2019-02-09T05:08:07.434Z,122.27
2019-02-09T05:10:37.150Z,112.47
2019-02-09T05:13:06.505Z,112.23
2019-02-09T05:15:35.883Z,117.60
2019-02-09T05:18:05.787Z,115.93
2019-02-09T05:20:35.264Z,128.97
2019-02-09T05:23:05.007Z,141.87
2019-02-09T05:25:34.828Z,129.13
2019-02-09T05:28:03.975Z,134.27
2019-02-09T05:30:33.840Z,136.30
2019-02-09T05:33:03.231Z,136.67
2019-02-09T05:35:33.125Z,142.13
2019-02-09T05:38:02.603Z,136.63
2019-02-09T05:40:32.400Z,131.27
2019-02-09T05:43:02.504Z,139.93
2019-02-09T05:45:31.901Z,141.33
2019-02-09T05:48:01.404Z,145.87
2019-02-09T05:50:31.236Z,144.93
2019-02-09T05:53:01.192Z,143.67
2019-02-09T05:55:30.916Z,157.60
2019-02-09T05:58:00.347Z,140.63
2019-02-09T06:00:33.694Z,151.37
2019-02-09T06:03:03.801Z,144.67
2019-02-09T06:05:33.316Z,149.33
2019-02-09T06:08:03.001Z,146.63
2019-02-09T06:10:32.318Z,142.40
2019-02-09T06:13:01.585Z,136.47
2019-02-09T06:15:31.476Z,127.33
2019-02-09T06:18:00.606Z,126.87
2019-02-09T06:20:30.086Z,105.90
2019-02-09T06:22:59.542Z,104.63
2019-02-09T06:25:29.615Z,91.60
2019-02-09T06:27:59.484Z,81.50
2019-02-09T06:30:29.689Z,67.73
2019-02-09T06:32:58.777Z,68.13
2019-02-09T06:35:28.216Z,69.67
2019-02-09T06:37:59.585Z,85.10
2019-02-09T06:40:29.117Z,98.20
2019-02-09T06:42:59.195Z,105.20
2019-02-09T06:45:28.625Z,82.97
2019-02-09T06:48:24.415Z,73.77
2019-02-09T06:50:54.435Z,71.63
2019-02-09T06:53:23.972Z,57.50
2019-02-09T06:55:54.095Z,62.40
2019-02-09T06:58:23.510Z,66.97
2019-02-09T07:00:52.912Z,74.97
2019-02-09T07:03:22.809Z,85.17
2019-02-09T07:05:52.122Z,88.67
2019-02-09T07:08:21.699Z,84.83
2019-02-09T07:10:50.874Z,84.23
2019-02-09T07:13:21.398Z,82.33
2019-02-09T07:15:50.672Z,76.00
2019-02-09T07:18:20.766Z,78.43
2019-02-09T07:20:49.872Z,78.50
2019-02-09T07:23:19.115Z,74.50
2019-02-09T07:25:48.821Z,76.50
2019-02-09T07:28:18.440Z,83.83
2019-02-09T07:30:48.516Z,84.63
2019-02-09T07:33:18.746Z,84.80
2019-02-09T07:35:48.694Z,77.77
2019-02-09T07:38:18.717Z,83.93
2019-02-09T07:40:48.352Z,79.43
2019-02-09T07:43:17.929Z,79.63
2019-02-09T07:45:47.832Z,81.53
2019-02-09T07:48:17.606Z,83.17
2019-02-09T07:50:46.648Z,76.13
2019-02-09T07:53:16.151Z,61.07
2019-02-09T07:55:45.913Z,67.03
2019-02-09T07:58:15.783Z,74.67
2019-02-09T08:00:45.183Z,58.87
2019-02-09T08:03:14.687Z,55.73
2019-02-09T08:05:43.787Z,58.50
2019-02-09T08:08:13.613Z,62.63
2019-02-09T08:10:42.788Z,53.00
2019-02-09T08:13:11.998Z,60.53
2019-02-09T08:15:41.450Z,57.97
2019-02-09T08:18:10.910Z,72.23
2019-02-09T08:20:40.346Z,75.73
2019-02-09T08:23:09.778Z,77.93
2019-02-09T08:25:39.331Z,79.97
2019-02-09T08:28:10.003Z,83.77
2019-02-09T08:30:41.623Z,101.47
2019-02-09T08:33:10.991Z,96.47
2019-02-09T08:35:40.541Z,105.50
2019-02-09T08:38:11.603Z,124.00
2019-02-09T08:40:41.564Z,126.53
2019-02-09T08:43:11.457Z,112.63
2019-02-09T08:45:41.316Z,118.00
2019-02-09T08:48:10.592Z,110.33
2019-02-09T08:50:49.567Z,90.60
2019-02-09T08:53:19.493Z,78.60
2019-02-09T08:55:49.776Z,79.70
2019-02-09T08:58:19.336Z,69.50
2019-02-09T09:00:49.569Z,66.93
2019-02-09T09:03:19.202Z,69.90
2019-02-09T09:05:49.137Z,73.63
2019-02-09T09:08:19.072Z,68.60
2019-02-09T09:10:48.897Z,64.13
2019-02-09T09:13:18.039Z,58.47
2019-02-09T09:15:50.193Z,49.37
2019-02-09T09:18:19.704Z,46.77
2019-02-09T09:20:52.042Z,45.13
2019-02-09T09:23:21.210Z,45.63
2019-02-09T09:25:50.312Z,44.73
2019-02-09T09:28:20.885Z,46.87
2019-02-09T09:30:50.825Z,44.50
2019-02-09T09:33:20.143Z,41.23
2019-02-09T09:35:49.877Z,40.73
2019-02-09T09:38:19.888Z,43.80
2019-02-09T09:40:49.438Z,54.20
2019-02-09T09:43:19.422Z,49.53
2019-02-09T09:45:49.098Z,49.90
2019-02-09T09:48:19.567Z,43.40
2019-02-09T09:50:48.703Z,43.23
2019-02-09T09:53:18.777Z,38.77
2019-02-09T09:55:48.523Z,43.67
2019-02-09T09:58:18.759Z,44.50
2019-02-09T10:00:48.532Z,40.53
2019-02-09T10:03:18.526Z,35.73
2019-02-09T10:05:48.190Z,37.90
2019-02-09T10:08:18.043Z,35.90
2019-02-09T10:10:48.571Z,36.37
2019-02-09T10:13:18.081Z,36.83
2019-02-09T10:15:48.141Z,39.00
2019-02-09T10:18:17.791Z,37.00
2019-02-09T10:20:48.089Z,34.07
2019-02-09T10:23:18.808Z,38.57
2019-02-09T10:25:48.859Z,44.03
2019-02-09T10:28:18.123Z,51.07
2019-02-09T10:30:47.549Z,47.10
2019-02-09T10:33:17.512Z,51.73
2019-02-09T10:35:47.265Z,51.23
2019-02-09T10:38:17.169Z,54.23
2019-02-09T10:40:47.105Z,52.97
2019-02-09T10:43:16.448Z,50.50
2019-02-09T10:45:45.840Z,49.80
2019-02-09T10:48:15.032Z,52.00
2019-02-09T10:50:45.918Z,60.33
2019-02-09T10:53:15.487Z,69.30
2019-02-09T10:55:44.752Z,65.13
2019-02-09T10:58:14.300Z,65.70
2019-02-09T11:00:48.832Z,70.50
2019-02-09T11:03:18.819Z,62.93
2019-02-09T11:05:48.000Z,57.27
2019-02-09T11:08:18.124Z,74.67
2019-02-09T11:10:47.335Z,66.27
2019-02-09T11:13:16.546Z,70.50
2019-02-09T11:15:46.024Z,91.90
2019-02-09T11:18:15.534Z,83.53
2019-02-09T11:20:44.709Z,86.50
2019-02-09T11:23:14.591Z,77.13
2019-02-09T11:25:43.969Z,68.07
2019-02-09T11:28:13.880Z,61.47
2019-02-09T11:30:44.183Z,60.80
2019-02-09T11:33:13.932Z,52.83
2019-02-09T11:35:43.311Z,59.80
2019-02-09T11:38:12.403Z,57.23
2019-02-09T11:40:42.455Z,55.30
2019-02-09T11:43:11.526Z,54.53
2019-02-09T11:45:41.885Z,52.73
2019-02-09T11:48:11.456Z,48.27
2019-02-09T11:50:41.010Z,47.90
2019-02-09T11:53:10.866Z,53.73
2019-02-09T11:55:40.747Z,49.13
2019-02-09T11:58:10.165Z,48.43
2019-02-09T12:00:45.055Z,51.40
2019-02-09T12:03:16.094Z,46.97
2019-02-09T12:05:45.823Z,50.07
2019-02-09T12:08:14.894Z,46.90
2019-02-09T12:10:44.945Z,51.70
2019-02-09T12:13:14.038Z,45.10
2019-02-09T12:15:43.828Z,45.40
2019-02-09T12:18:13.330Z,35.80
2019-02-09T12:20:42.842Z,30.97
2019-02-09T12:23:11.926Z,30.87
2019-02-09T12:25:41.820Z,27.53
2019-02-09T12:28:11.359Z,28.10
2019-02-09T12:30:41.123Z,33.50
2019-02-09T12:33:10.944Z,30.53
2019-02-09T12:35:41.175Z,29.10
2019-02-09T12:38:11.439Z,36.73
2019-02-09T12:40:41.207Z,36.13
2019-02-09T12:43:11.495Z,31.87
2019-02-09T12:45:41.067Z,31.33
2019-02-09T12:48:10.656Z,26.97
2019-02-09T12:50:40.719Z,24.20
2019-02-09T12:53:10.570Z,25.10
2019-02-09T12:55:40.778Z,25.47
2019-02-09T12:58:11.225Z,23.50
2019-02-09T13:00:41.353Z,23.57
2019-02-09T13:03:16.721Z,23.40
2019-02-09T13:05:46.545Z,21.73
2019-02-09T13:08:15.628Z,22.17
2019-02-09T13:10:45.778Z,23.20
2019-02-09T13:13:15.540Z,23.43
2019-02-09T13:15:45.098Z,18.23
2019-02-09T13:18:15.055Z,20.87
2019-02-09T13:20:46.378Z,22.37
2019-02-09T13:23:15.932Z,19.30
2019-02-09T13:25:45.330Z,22.60
2019-02-09T13:28:14.914Z,22.27
2019-02-09T13:30:44.744Z,23.03
2019-02-09T13:33:14.179Z,23.77
2019-02-09T13:35:43.634Z,23.27
2019-02-09T13:38:13.086Z,22.40
2019-02-09T13:40:42.551Z,19.73
2019-02-09T13:43:12.093Z,22.37
2019-02-09T13:45:45.395Z,20.83
2019-02-09T13:48:15.089Z,21.17
2019-02-09T13:50:44.980Z,18.87
2019-02-09T13:53:14.071Z,22.90
2019-02-09T13:55:43.168Z,21.17
2019-02-09T13:58:12.882Z,20.00
2019-02-09T14:00:42.773Z,21.07
2019-02-09T14:03:12.529Z,19.40
2019-02-09T14:05:42.451Z,19.10
2019-02-09T14:08:12.207Z,25.53
2019-02-09T14:10:41.547Z,21.07
2019-02-09T14:13:14.738Z,20.80
2019-02-09T14:15:42.702Z,21.33
2019-02-09T14:18:12.191Z,20.77
2019-02-09T14:20:41.291Z,18.57
2019-02-09T14:23:10.763Z,21.50
2019-02-09T14:25:40.914Z,24.90
2019-02-09T14:28:10.835Z,25.47
2019-02-09T14:30:39.934Z,22.47
2019-02-09T14:33:10.382Z,21.73
2019-02-09T14:35:41.673Z,23.63
2019-02-09T14:38:10.914Z,24.07
2019-02-09T14:40:40.878Z,27.07
2019-02-09T14:43:11.156Z,23.93
2019-02-09T14:45:42.462Z,23.37
2019-02-09T14:48:12.386Z,22.27
2019-02-09T14:50:42.243Z,21.37
2019-02-09T14:53:11.259Z,19.20
2019-02-09T14:55:40.735Z,22.03
2019-02-09T14:58:09.924Z,21.50
2019-02-09T15:00:44.924Z,23.30
2019-02-09T15:03:15.130Z,26.53
2019-02-09T15:05:44.996Z,24.63
2019-02-09T15:08:14.493Z,27.30
2019-02-09T15:10:43.610Z,25.33
2019-02-09T15:13:14.082Z,26.87
2019-02-09T15:15:51.165Z,25.70
2019-02-09T15:18:20.800Z,26.93
2019-02-09T15:20:56.366Z,26.07
2019-02-09T15:23:25.485Z,27.17
2019-02-09T15:25:55.211Z,31.43
2019-02-09T15:28:24.786Z,25.43
2019-02-09T15:30:54.195Z,31.20
2019-02-09T15:33:23.782Z,26.67
2019-02-09T15:35:53.677Z,24.80
2019-02-09T15:38:23.161Z,27.70
2019-02-09T15:40:53.055Z,27.50
2019-02-09T15:43:22.213Z,29.10
2019-02-09T15:45:52.354Z,24.53
2019-02-09T15:48:22.490Z,30.77
2019-02-09T15:50:52.368Z,29.37
2019-02-09T15:53:21.869Z,30.03
2019-02-09T15:55:51.685Z,28.27
2019-02-09T15:58:21.201Z,30.97
2019-02-09T16:00:50.599Z,32.07
2019-02-09T16:03:21.058Z,29.27
2019-02-09T16:05:51.292Z,29.67
2019-02-09T16:08:20.750Z,33.03
2019-02-09T16:10:50.196Z,32.17
2019-02-09T16:13:19.694Z,36.70
2019-02-09T16:15:48.785Z,34.30
2019-02-09T16:18:18.584Z,39.43
2019-02-09T16:20:48.687Z,35.67
2019-02-09T16:23:18.230Z,35.07
2019-02-09T16:25:47.867Z,34.07
2019-02-09T16:28:17.298Z,38.80
2019-02-09T16:30:47.459Z,36.03
2019-02-09T16:33:17.268Z,51.30
2019-02-09T16:35:46.713Z,71.50
2019-02-09T16:38:16.763Z,67.57
2019-02-09T16:40:46.516Z,46.07
2019-02-09T16:43:16.171Z,46.43
2019-02-09T16:45:45.259Z,42.47
2019-02-09T16:48:15.265Z,43.07
2019-02-09T16:50:45.042Z,43.10
2019-02-09T16:53:14.848Z,37.70
2019-02-09T16:55:44.843Z,44.07
2019-02-09T16:58:14.668Z,42.27
2019-02-09T17:00:44.575Z,46.03
2019-02-09T17:03:14.467Z,43.73
2019-02-09T17:05:43.684Z,46.43
2019-02-09T17:08:12.992Z,41.37
2019-02-09T17:10:42.149Z,42.53
2019-02-09T17:13:12.564Z,40.63
2019-02-09T17:15:41.687Z,40.50
2019-02-09T17:18:10.778Z,42.27
2019-02-09T17:20:40.268Z,41.10
2019-02-09T17:23:10.111Z,37.30
2019-02-09T17:25:39.701Z,41.73
2019-02-09T17:28:09.874Z,39.33
2019-02-09T17:30:40.573Z,37.70
2019-02-09T17:33:10.155Z,44.90
2019-02-09T17:35:39.347Z,43.40
2019-02-09T17:38:08.708Z,41.33
2019-02-09T17:40:44.045Z,50.17
2019-02-09T17:43:13.752Z,51.70
2019-02-09T17:45:53.081Z,47.90
2019-02-09T17:48:22.918Z,50.20
2019-02-09T17:50:52.378Z,54.17
2019-02-09T17:53:22.334Z,61.33
2019-02-09T17:55:52.337Z,55.70
2019-02-09T17:58:21.772Z,60.90
2019-02-09T18:00:57.434Z,55.13
2019-02-09T18:03:27.331Z,54.27
2019-02-09T18:05:56.675Z,53.73
2019-02-09T18:08:26.786Z,55.67
2019-02-09T18:10:56.221Z,57.20
2019-02-09T18:13:26.621Z,57.23
2019-02-09T18:15:55.998Z,59.97
2019-02-09T18:18:26.341Z,56.13
2019-02-09T18:20:56.156Z,57.10
2019-02-09T18:23:25.654Z,61.13
2019-02-09T18:25:54.982Z,59.27
2019-02-09T18:28:24.541Z,61.63
2019-02-09T18:30:53.938Z,56.10
2019-02-09T18:33:23.183Z,54.60
2019-02-09T18:35:52.742Z,56.30
2019-02-09T18:38:21.971Z,61.30
2019-02-09T18:40:51.188Z,55.03
2019-02-09T18:43:21.140Z,54.27
2019-02-09T18:45:57.618Z,60.80
2019-02-09T18:48:22.794Z,56.27
2019-02-09T18:50:52.699Z,53.43
2019-02-09T18:53:22.182Z,53.33
2019-02-09T18:55:52.343Z,52.53
2019-02-09T18:58:22.010Z,44.53
2019-02-09T19:00:51.949Z,47.60
2019-02-09T19:03:21.442Z,42.17
2019-02-09T19:05:50.591Z,45.10
2019-02-09T19:08:20.385Z,44.57
2019-02-09T19:10:49.753Z,50.23
2019-02-09T19:13:19.715Z,46.87
2019-02-09T19:15:49.636Z,50.03
2019-02-09T19:18:19.602Z,47.63
2019-02-09T19:20:52.578Z,46.60
2019-02-09T19:23:22.284Z,48.90
2019-02-09T19:25:51.465Z,49.00
2019-02-09T19:28:20.982Z,51.50
2019-02-09T19:30:50.656Z,52.73
2019-02-09T19:33:20.887Z,49.83
2019-02-09T19:35:50.555Z,50.90
2019-02-09T19:38:19.784Z,53.17
2019-02-09T19:40:49.756Z,54.43
2019-02-09T19:43:18.960Z,63.43
2019-02-09T19:45:49.376Z,50.13
2019-02-09T19:48:19.293Z,52.87
2019-02-09T19:50:48.832Z,53.40
2019-02-09T19:53:18.267Z,60.10
2019-02-09T19:55:47.706Z,54.87
2019-02-09T19:58:16.890Z,57.07
2019-02-09T20:00:46.979Z,58.37
2019-02-09T20:03:16.481Z,56.77
2019-02-09T20:05:45.576Z,61.20
2019-02-09T20:08:15.319Z,68.30
2019-02-09T20:10:44.915Z,64.10
2019-02-09T20:13:14.515Z,64.73
2019-02-09T20:15:43.639Z,63.73
2019-02-09T20:18:13.241Z,63.97
2019-02-09T20:20:47.406Z,59.93
2019-02-09T20:23:15.058Z,65.77
2019-02-09T20:25:44.299Z,72.73
2019-02-09T20:28:13.906Z,70.33
2019-02-09T20:30:43.546Z,80.13
2019-02-09T20:33:12.727Z,85.90
2019-02-09T20:35:42.289Z,74.97
2019-02-09T20:38:12.622Z,83.30
2019-02-09T20:40:54.331Z,82.33
2019-02-09T20:43:23.514Z,93.00
2019-02-09T20:45:53.197Z,88.23
2019-02-09T20:51:39.020Z,81.87
2019-02-09T20:54:08.179Z,76.73
2019-02-09T20:56:37.715Z,76.07
2019-02-09T20:59:07.262Z,83.93
2019-02-09T21:01:36.444Z,81.73
2019-02-09T21:04:06.249Z,71.70
2019-02-09T21:06:36.053Z,85.67
2019-02-09T21:09:07.770Z,100.20
2019-02-09T21:11:37.618Z,80.27
2019-02-09T21:14:07.248Z,87.17
2019-02-09T21:16:36.633Z,80.10
2019-02-09T21:19:06.499Z,73.87
2019-02-09T21:21:36.058Z,86.00
2019-02-09T21:24:05.248Z,80.90
2019-02-09T21:26:35.429Z,84.93
2019-02-09T21:29:05.467Z,84.40
2019-02-09T21:31:34.635Z,93.00
2019-02-09T21:34:04.410Z,81.17
2019-02-09T21:36:34.238Z,83.73
2019-02-09T21:39:05.942Z,98.87
2019-02-09T21:41:36.279Z,84.10
2019-02-09T21:44:05.678Z,90.47
2019-02-09T21:46:35.267Z,90.23
2019-02-09T21:49:05.188Z,72.43
2019-02-09T21:51:34.578Z,66.07
2019-02-09T21:54:04.410Z,69.13
2019-02-09T21:56:34.116Z,59.40
2019-02-09T21:59:03.341Z,55.67
2019-02-09T22:01:33.174Z,53.03
2019-02-09T22:04:03.710Z,46.07
2019-02-09T22:06:33.408Z,48.57
2019-02-09T22:09:03.611Z,46.33
2019-02-09T22:11:33.358Z,45.63
2019-02-09T22:14:03.065Z,43.63
2019-02-09T22:16:32.747Z,50.17
2019-02-09T22:19:02.688Z,46.37
2019-02-09T22:21:33.445Z,42.50
2019-02-09T22:24:03.122Z,42.00
2019-02-09T22:26:33.103Z,37.93
2019-02-09T22:29:03.068Z,43.07
2019-02-09T22:31:33.490Z,41.60
2019-02-09T22:37:35.083Z,44.73
2019-02-09T22:40:06.222Z,44.13
2019-02-09T22:42:35.722Z,44.30
2019-02-09T22:45:06.515Z,41.07
2019-02-09T22:47:36.458Z,44.37
2019-02-09T22:50:09.411Z,42.23
2019-02-09T22:52:38.772Z,44.87
2019-02-09T22:55:08.148Z,39.33
2019-02-09T22:57:37.706Z,41.50
2019-02-09T23:00:21.492Z,42.70
2019-02-09T23:02:51.248Z,45.17
2019-02-09T23:05:57.567Z,42.03
2019-02-09T23:08:28.288Z,36.77
2019-02-09T23:10:57.800Z,39.47
2019-02-09T23:13:28.332Z,37.47
2019-02-09T23:15:57.767Z,40.60
2019-02-09T23:18:26.920Z,43.77
2019-02-09T23:20:56.009Z,43.03
2019-02-09T23:23:26.320Z,39.63
2019-02-09T23:25:55.493Z,41.77
2019-02-09T23:28:25.351Z,41.67
2019-02-09T23:30:55.298Z,38.20
2019-02-09T23:33:24.876Z,44.47
2019-02-09T23:35:54.363Z,38.20
2019-02-09T23:38:24.356Z,38.87
2019-02-09T23:40:53.904Z,45.90
2019-02-09T23:43:23.623Z,38.63
2019-02-09T23:45:53.218Z,43.33
2019-02-09T23:48:22.649Z,35.20
2019-02-09T23:50:52.238Z,35.33
2019-02-09T23:53:21.431Z,41.87
2019-02-09T23:55:51.041Z,44.00
2019-02-09T23:58:20.987Z,44.40
